Terminal Aerodrome Forecast
Issued by NWS Raleigh/Durham, NC

Home | Current Version | Previous Version | Text Only | Print | Product List | Glossary On
Versions: 1 2 3 4 5 6 7 8 9 10 11 12 13 14
000
FTUS42 KRAH 301729
TAFRDU
TAF
KRDU 301729Z 3018/3118 24012KT P6SM BKN040 BKN140
      TEMPO 3018/3022 3SM -TSRA BKN030CB
     FM302200 20006KT P6SM VCTS BKN050CB
     FM310100 22003KT P6SM SCT250=

USA.gov is the U.S. government's official web portal to all federal, state and local government web resources and services.